sensor_id;sensor_type;location;lat;lon;timestamp;P1;durP1;ratioP1;P2;durP2;ratioP2
12059;SDS011;6091;51.432;6.880;2023-07-22T00:00:12;4.13;;;3.75;;
12059;SDS011;6091;51.432;6.880;2023-07-22T00:02:41;4.35;;;3.95;;
12059;SDS011;6091;51.432;6.880;2023-07-22T00:05:09;3.95;;;3.65;;
12059;SDS011;6091;51.432;6.880;2023-07-22T00:07:36;3.67;;;3.38;;
12059;SDS011;6091;51.432;6.880;2023-07-22T00:10:03;3.75;;;3.45;;
12059;SDS011;6091;51.432;6.880;2023-07-22T00:12:31;3.80;;;3.50;;
12059;SDS011;6091;51.432;6.880;2023-07-22T00:14:59;4.35;;;3.95;;
12059;SDS011;6091;51.432;6.880;2023-07-22T00:17:26;3.67;;;3.38;;
12059;SDS011;6091;51.432;6.880;2023-07-22T00:19:53;3.60;;;3.30;;
12059;SDS011;6091;51.432;6.880;2023-07-22T00:22:20;3.20;;;2.92;;
12059;SDS011;6091;51.432;6.880;2023-07-22T00:24:48;3.60;;;3.35;;
12059;SDS011;6091;51.432;6.880;2023-07-22T00:27:15;3.95;;;3.65;;
12059;SDS011;6091;51.432;6.880;2023-07-22T00:29:42;4.00;;;3.70;;
12059;SDS011;6091;51.432;6.880;2023-07-22T00:32:10;3.72;;;3.42;;
12059;SDS011;6091;51.432;6.880;2023-07-22T00:34:38;4.15;;;3.80;;
12059;SDS011;6091;51.432;6.880;2023-07-22T00:37:05;3.80;;;3.50;;
12059;SDS011;6091;51.432;6.880;2023-07-22T00:39:32;3.97;;;3.67;;
12059;SDS011;6091;51.432;6.880;2023-07-22T00:41:59;3.88;;;3.58;;
12059;SDS011;6091;51.432;6.880;2023-07-22T00:44:26;3.20;;;3.00;;
12059;SDS011;6091;51.432;6.880;2023-07-22T00:46:54;3.33;;;3.03;;
12059;SDS011;6091;51.432;6.880;2023-07-22T00:49:24;4.05;;;3.75;;
12059;SDS011;6091;51.432;6.880;2023-07-22T00:51:54;4.07;;;3.78;;
12059;SDS011;6091;51.432;6.880;2023-07-22T00:54:29;3.50;;;3.20;;
12059;SDS011;6091;51.432;6.880;2023-07-22T00:56:57;3.45;;;3.15;;
12059;SDS011;6091;51.432;6.880;2023-07-22T00:59:24;3.58;;;3.33;;
12059;SDS011;6091;51.432;6.880;2023-07-22T01:01:51;4.22;;;3.85;;
12059;SDS011;6091;51.432;6.880;2023-07-22T01:04:19;4.03;;;3.72;;
12059;SDS011;6091;51.432;6.880;2023-07-22T01:06:49;3.45;;;3.22;;
12059;SDS011;6091;51.432;6.880;2023-07-22T01:09:19;3.60;;;3.30;;
12059;SDS011;6091;51.432;6.880;2023-07-22T01:11:46;4.25;;;3.88;;
12059;SDS011;6091;51.432;6.880;2023-07-22T01:14:14;3.60;;;3.30;;
12059;SDS011;6091;51.432;6.880;2023-07-22T01:16:44;3.85;;;3.33;;
12059;SDS011;6091;51.432;6.880;2023-07-22T01:19:13;3.78;;;3.47;;
12059;SDS011;6091;51.432;6.880;2023-07-22T01:21:45;3.40;;;3.20;;
12059;SDS011;6091;51.432;6.880;2023-07-22T01:24:15;3.70;;;3.40;;
12059;SDS011;6091;51.432;6.880;2023-07-22T01:26:43;4.22;;;3.70;;
12059;SDS011;6091;51.432;6.880;2023-07-22T01:29:10;3.72;;;3.42;;
12059;SDS011;6091;51.432;6.880;2023-07-22T01:31:37;3.58;;;3.28;;
12059;SDS011;6091;51.432;6.880;2023-07-22T01:34:04;4.00;;;3.70;;
12059;SDS011;6091;51.432;6.880;2023-07-22T01:36:32;3.70;;;3.40;;
12059;SDS011;6091;51.432;6.880;2023-07-22T01:38:59;4.07;;;3.78;;
12059;SDS011;6091;51.432;6.880;2023-07-22T01:41:26;3.50;;;3.25;;
12059;SDS011;6091;51.432;6.880;2023-07-22T01:43:54;3.47;;;3.28;;
12059;SDS011;6091;51.432;6.880;2023-07-22T01:46:21;3.65;;;3.35;;
12059;SDS011;6091;51.432;6.880;2023-07-22T01:48:48;3.70;;;3.40;;
12059;SDS011;6091;51.432;6.880;2023-07-22T01:51:15;4.05;;;3.33;;
12059;SDS011;6091;51.432;6.880;2023-07-22T01:53:42;3.75;;;3.45;;
12059;SDS011;6091;51.432;6.880;2023-07-22T01:56:09;4.07;;;3.70;;
12059;SDS011;6091;51.432;6.880;2023-07-22T01:58:36;3.67;;;3.38;;
12059;SDS011;6091;51.432;6.880;2023-07-22T02:01:03;3.97;;;3.40;;
12059;SDS011;6091;51.432;6.880;2023-07-22T02:03:30;3.75;;;3.42;;
12059;SDS011;6091;51.432;6.880;2023-07-22T02:06:02;3.63;;;3.33;;
12059;SDS011;6091;51.432;6.880;2023-07-22T02:08:32;3.78;;;3.47;;
12059;SDS011;6091;51.432;6.880;2023-07-22T02:11:03;3.50;;;3.25;;
12059;SDS011;6091;51.432;6.880;2023-07-22T02:13:33;4.00;;;3.70;;
12059;SDS011;6091;51.432;6.880;2023-07-22T02:16:01;3.80;;;3.50;;
12059;SDS011;6091;51.432;6.880;2023-07-22T02:18:29;3.88;;;3.58;;
12059;SDS011;6091;51.432;6.880;2023-07-22T02:20:57;3.40;;;3.13;;
12059;SDS011;6091;51.432;6.880;2023-07-22T02:23:24;3.88;;;3.58;;
12059;SDS011;6091;51.432;6.880;2023-07-22T02:25:51;3.60;;;3.30;;
12059;SDS011;6091;51.432;6.880;2023-07-22T02:28:20;3.28;;;3.08;;
12059;SDS011;6091;51.432;6.880;2023-07-22T02:30:50;4.03;;;3.72;;
12059;SDS011;6091;51.432;6.880;2023-07-22T02:33:19;4.05;;;3.75;;
12059;SDS011;6091;51.432;6.880;2023-07-22T02:35:48;3.78;;;3.42;;
12059;SDS011;6091;51.432;6.880;2023-07-22T02:38:15;3.78;;;3.47;;
12059;SDS011;6091;51.432;6.880;2023-07-22T02:40:42;3.97;;;3.67;;
12059;SDS011;6091;51.432;6.880;2023-07-22T02:43:09;3.95;;;3.65;;
12059;SDS011;6091;51.432;6.880;2023-07-22T02:45:36;4.00;;;3.70;;
12059;SDS011;6091;51.432;6.880;2023-07-22T02:48:04;3.72;;;3.42;;
12059;SDS011;6091;51.432;6.880;2023-07-22T02:50:31;4.32;;;4.03;;
12059;SDS011;6091;51.432;6.880;2023-07-22T02:52:59;3.70;;;3.40;;
12059;SDS011;6091;51.432;6.880;2023-07-22T02:55:26;4.03;;;3.72;;
12059;SDS011;6091;51.432;6.880;2023-07-22T02:57:53;3.83;;;3.53;;
12059;SDS011;6091;51.432;6.880;2023-07-22T03:00:20;4.07;;;3.78;;
12059;SDS011;6091;51.432;6.880;2023-07-22T03:02:53;3.85;;;3.55;;
12059;SDS011;6091;51.432;6.880;2023-07-22T03:05:31;3.75;;;3.45;;
12059;SDS011;6091;51.432;6.880;2023-07-22T03:07:58;3.70;;;3.40;;
12059;SDS011;6091;51.432;6.880;2023-07-22T03:10:26;4.22;;;3.78;;
12059;SDS011;6091;51.432;6.880;2023-07-22T03:12:53;4.25;;;3.88;;
12059;SDS011;6091;51.432;6.880;2023-07-22T03:15:22;3.75;;;3.45;;
12059;SDS011;6091;51.432;6.880;2023-07-22T03:17:53;4.20;;;3.90;;
12059;SDS011;6091;51.432;6.880;2023-07-22T03:20:25;4.20;;;3.90;;
12059;SDS011;6091;51.432;6.880;2023-07-22T03:22:52;3.58;;;3.38;;
12059;SDS011;6091;51.432;6.880;2023-07-22T03:25:20;4.35;;;3.95;;
12059;SDS011;6091;51.432;6.880;2023-07-22T03:27:47;3.88;;;3.58;;
12059;SDS011;6091;51.432;6.880;2023-07-22T03:30:15;3.88;;;3.58;;
12059;SDS011;6091;51.432;6.880;2023-07-22T03:32:45;3.90;;;3.55;;
12059;SDS011;6091;51.432;6.880;2023-07-22T03:35:14;3.90;;;3.60;;
12059;SDS011;6091;51.432;6.880;2023-07-22T03:37:42;3.90;;;3.60;;
12059;SDS011;6091;51.432;6.880;2023-07-22T03:40:09;3.75;;;3.45;;
12059;SDS011;6091;51.432;6.880;2023-07-22T03:42:41;3.80;;;3.50;;
12059;SDS011;6091;51.432;6.880;2023-07-22T03:45:09;3.92;;;3.63;;
12059;SDS011;6091;51.432;6.880;2023-07-22T03:47:36;3.78;;;3.45;;
12059;SDS011;6091;51.432;6.880;2023-07-22T03:50:05;3.88;;;3.58;;
12059;SDS011;6091;51.432;6.880;2023-07-22T03:52:33;4.15;;;3.75;;
12059;SDS011;6091;51.432;6.880;2023-07-22T03:55:01;3.67;;;3.33;;
12059;SDS011;6091;51.432;6.880;2023-07-22T03:57:31;3.38;;;3.17;;
12059;SDS011;6091;51.432;6.880;2023-07-22T03:59:58;3.50;;;3.30;;
12059;SDS011;6091;51.432;6.880;2023-07-22T04:02:26;3.70;;;3.40;;
12059;SDS011;6091;51.432;6.880;2023-07-22T04:04:53;3.65;;;3.35;;
12059;SDS011;6091;51.432;6.880;2023-07-22T04:07:21;3.58;;;3.28;;
12059;SDS011;6091;51.432;6.880;2023-07-22T04:09:48;3.42;;;3.13;;
12059;SDS011;6091;51.432;6.880;2023-07-22T04:12:16;3.80;;;3.50;;
12059;SDS011;6091;51.432;6.880;2023-07-22T04:14:43;3.72;;;3.42;;
12059;SDS011;6091;51.432;6.880;2023-07-22T04:17:10;3.33;;;3.03;;
12059;SDS011;6091;51.432;6.880;2023-07-22T04:19:37;3.40;;;3.10;;
12059;SDS011;6091;51.432;6.880;2023-07-22T04:22:05;3.88;;;3.58;;
12059;SDS011;6091;51.432;6.880;2023-07-22T04:24:32;3.63;;;3.33;;
12059;SDS011;6091;51.432;6.880;2023-07-22T04:27:00;3.50;;;3.20;;
12059;SDS011;6091;51.432;6.880;2023-07-22T04:29:28;3.40;;;3.15;;
12059;SDS011;6091;51.432;6.880;2023-07-22T04:31:58;3.88;;;3.58;;
12059;SDS011;6091;51.432;6.880;2023-07-22T04:34:30;3.63;;;3.33;;
12059;SDS011;6091;51.432;6.880;2023-07-22T04:36:58;3.92;;;3.63;;
12059;SDS011;6091;51.432;6.880;2023-07-22T04:39:25;4.00;;;3.70;;
12059;SDS011;6091;51.432;6.880;2023-07-22T04:41:52;3.42;;;3.22;;
12059;SDS011;6091;51.432;6.880;2023-07-22T04:44:19;3.42;;;3.20;;
12059;SDS011;6091;51.432;6.880;2023-07-22T04:46:46;3.60;;;3.30;;
12059;SDS011;6091;51.432;6.880;2023-07-22T04:49:14;3.97;;;3.58;;
12059;SDS011;6091;51.432;6.880;2023-07-22T04:51:47;3.58;;;3.28;;
12059;SDS011;6091;51.432;6.880;2023-07-22T04:54:15;3.85;;;3.55;;
12059;SDS011;6091;51.432;6.880;2023-07-22T04:56:42;4.10;;;3.75;;
12059;SDS011;6091;51.432;6.880;2023-07-22T04:59:09;3.85;;;3.55;;
12059;SDS011;6091;51.432;6.880;2023-07-22T05:01:36;3.60;;;3.25;;
12059;SDS011;6091;51.432;6.880;2023-07-22T05:04:03;3.60;;;3.30;;
12059;SDS011;6091;51.432;6.880;2023-07-22T05:06:32;3.97;;;3.42;;
12059;SDS011;6091;51.432;6.880;2023-07-22T05:08:59;4.00;;;3.60;;
12059;SDS011;6091;51.432;6.880;2023-07-22T05:11:26;3.88;;;3.58;;
12059;SDS011;6091;51.432;6.880;2023-07-22T05:13:53;3.58;;;3.28;;
12059;SDS011;6091;51.432;6.880;2023-07-22T05:16:20;3.33;;;3.13;;
12059;SDS011;6091;51.432;6.880;2023-07-22T05:18:50;3.67;;;3.38;;
12059;SDS011;6091;51.432;6.880;2023-07-22T05:21:17;3.45;;;3.15;;
12059;SDS011;6091;51.432;6.880;2023-07-22T05:23:44;4.05;;;3.75;;
12059;SDS011;6091;51.432;6.880;2023-07-22T05:26:11;3.78;;;3.47;;
12059;SDS011;6091;51.432;6.880;2023-07-22T05:28:38;3.22;;;2.92;;
12059;SDS011;6091;51.432;6.880;2023-07-22T05:31:05;3.20;;;3.00;;
12059;SDS011;6091;51.432;6.880;2023-07-22T05:33:35;3.53;;;3.22;;
12059;SDS011;6091;51.432;6.880;2023-07-22T05:36:02;4.00;;;3.60;;
12059;SDS011;6091;51.432;6.880;2023-07-22T05:38:32;4.25;;;3.33;;
12059;SDS011;6091;51.432;6.880;2023-07-22T05:40:59;3.42;;;3.20;;
12059;SDS011;6091;51.432;6.880;2023-07-22T05:43:26;3.10;;;2.90;;
12059;SDS011;6091;51.432;6.880;2023-07-22T05:45:53;3.35;;;3.05;;
12059;SDS011;6091;51.432;6.880;2023-07-22T05:48:20;3.30;;;3.00;;
12059;SDS011;6091;51.432;6.880;2023-07-22T05:50:48;3.30;;;3.03;;
12059;SDS011;6091;51.432;6.880;2023-07-22T05:53:15;3.92;;;3.63;;
12059;SDS011;6091;51.432;6.880;2023-07-22T05:55:43;3.55;;;3.25;;
12059;SDS011;6091;51.432;6.880;2023-07-22T05:58:16;3.92;;;3.53;;
12059;SDS011;6091;51.432;6.880;2023-07-22T06:00:44;3.67;;;3.38;;
12059;SDS011;6091;51.432;6.880;2023-07-22T06:03:13;3.50;;;3.20;;
12059;SDS011;6091;51.432;6.880;2023-07-22T06:05:40;3.25;;;3.05;;
12059;SDS011;6091;51.432;6.880;2023-07-22T06:08:07;3.90;;;3.08;;
12059;SDS011;6091;51.432;6.880;2023-07-22T06:10:34;3.55;;;3.25;;
12059;SDS011;6091;51.432;6.880;2023-07-22T06:13:04;3.40;;;3.10;;
12059;SDS011;6091;51.432;6.880;2023-07-22T06:15:32;3.42;;;3.13;;
12059;SDS011;6091;51.432;6.880;2023-07-22T06:17:59;3.45;;;3.17;;
12059;SDS011;6091;51.432;6.880;2023-07-22T06:20:28;3.40;;;3.20;;
12059;SDS011;6091;51.432;6.880;2023-07-22T06:22:56;3.78;;;3.47;;
12059;SDS011;6091;51.432;6.880;2023-07-22T06:25:23;3.58;;;3.28;;
12059;SDS011;6091;51.432;6.880;2023-07-22T06:27:50;3.80;;;3.50;;
12059;SDS011;6091;51.432;6.880;2023-07-22T06:30:20;3.83;;;3.50;;
12059;SDS011;6091;51.432;6.880;2023-07-22T06:32:47;3.70;;;3.42;;
12059;SDS011;6091;51.432;6.880;2023-07-22T06:35:14;3.58;;;3.28;;
12059;SDS011;6091;51.432;6.880;2023-07-22T06:37:41;3.08;;;2.88;;
12059;SDS011;6091;51.432;6.880;2023-07-22T06:40:09;3.60;;;3.30;;
12059;SDS011;6091;51.432;6.880;2023-07-22T06:42:37;3.40;;;3.10;;
12059;SDS011;6091;51.432;6.880;2023-07-22T06:45:04;3.38;;;3.08;;
12059;SDS011;6091;51.432;6.880;2023-07-22T06:47:32;3.05;;;2.85;;
12059;SDS011;6091;51.432;6.880;2023-07-22T06:50:00;3.33;;;3.03;;
12059;SDS011;6091;51.432;6.880;2023-07-22T06:52:27;3.40;;;3.10;;
12059;SDS011;6091;51.432;6.880;2023-07-22T06:54:54;3.35;;;3.13;;
12059;SDS011;6091;51.432;6.880;2023-07-22T06:57:21;4.93;;;3.83;;
12059;SDS011;6091;51.432;6.880;2023-07-22T06:59:48;4.38;;;3.47;;
12059;SDS011;6091;51.432;6.880;2023-07-22T07:02:17;3.88;;;3.55;;
12059;SDS011;6091;51.432;6.880;2023-07-22T07:04:44;4.35;;;3.95;;
12059;SDS011;6091;51.432;6.880;2023-07-22T07:07:12;4.25;;;3.85;;
12059;SDS011;6091;51.432;6.880;2023-07-22T07:09:40;4.55;;;4.15;;
12059;SDS011;6091;51.432;6.880;2023-07-22T07:12:07;3.90;;;3.60;;
12059;SDS011;6091;51.432;6.880;2023-07-22T07:14:35;4.45;;;4.05;;
12059;SDS011;6091;51.432;6.880;2023-07-22T07:17:03;4.82;;;3.88;;
12059;SDS011;6091;51.432;6.880;2023-07-22T07:19:31;4.70;;;4.18;;
12059;SDS011;6091;51.432;6.880;2023-07-22T07:21:58;3.97;;;3.67;;
12059;SDS011;6091;51.432;6.880;2023-07-22T07:24:25;4.00;;;3.67;;
12059;SDS011;6091;51.432;6.880;2023-07-22T07:26:53;4.32;;;3.92;;
12059;SDS011;6091;51.432;6.880;2023-07-22T07:29:21;4.35;;;3.95;;
12059;SDS011;6091;51.432;6.880;2023-07-22T07:32:08;4.35;;;3.95;;
12059;SDS011;6091;51.432;6.880;2023-07-22T07:34:35;4.22;;;3.83;;
12059;SDS011;6091;51.432;6.880;2023-07-22T07:37:02;3.83;;;3.53;;
12059;SDS011;6091;51.432;6.880;2023-07-22T07:39:29;4.47;;;4.07;;
12059;SDS011;6091;51.432;6.880;2023-07-22T07:41:56;4.00;;;3.70;;
12059;SDS011;6091;51.432;6.880;2023-07-22T07:44:23;4.38;;;3.97;;
12059;SDS011;6091;51.432;6.880;2023-07-22T07:46:50;4.25;;;3.92;;
12059;SDS011;6091;51.432;6.880;2023-07-22T07:49:17;4.15;;;3.75;;
12059;SDS011;6091;51.432;6.880;2023-07-22T07:51:45;4.90;;;4.15;;
12059;SDS011;6091;51.432;6.880;2023-07-22T07:54:11;4.00;;;3.70;;
12059;SDS011;6091;51.432;6.880;2023-07-22T07:56:39;4.40;;;4.00;;
12059;SDS011;6091;51.432;6.880;2023-07-22T07:59:06;4.35;;;4.03;;
12059;SDS011;6091;51.432;6.880;2023-07-22T08:01:35;4.72;;;4.25;;
12059;SDS011;6091;51.432;6.880;2023-07-22T08:04:08;4.53;;;4.13;;
12059;SDS011;6091;51.432;6.880;2023-07-22T08:06:35;4.65;;;4.05;;
12059;SDS011;6091;51.432;6.880;2023-07-22T08:09:04;4.90;;;4.28;;
12059;SDS011;6091;51.432;6.880;2023-07-22T08:11:31;5.00;;;4.50;;
12059;SDS011;6091;51.432;6.880;2023-07-22T08:13:59;4.90;;;4.22;;
12059;SDS011;6091;51.432;6.880;2023-07-22T08:16:26;4.90;;;4.20;;
12059;SDS011;6091;51.432;6.880;2023-07-22T08:18:55;4.55;;;4.15;;
12059;SDS011;6091;51.432;6.880;2023-07-22T08:21:22;4.80;;;4.40;;
12059;SDS011;6091;51.432;6.880;2023-07-22T08:23:49;4.82;;;4.32;;
12059;SDS011;6091;51.432;6.880;2023-07-22T08:26:16;6.78;;;4.25;;
12059;SDS011;6091;51.432;6.880;2023-07-22T08:28:47;4.43;;;4.10;;
12059;SDS011;6091;51.432;6.880;2023-07-22T08:31:14;4.03;;;3.72;;
12059;SDS011;6091;51.432;6.880;2023-07-22T08:33:43;5.53;;;4.32;;
12059;SDS011;6091;51.432;6.880;2023-07-22T08:36:10;5.07;;;4.07;;
12059;SDS011;6091;51.432;6.880;2023-07-22T08:38:38;4.63;;;4.22;;
12059;SDS011;6091;51.432;6.880;2023-07-22T08:41:05;4.68;;;4.22;;
12059;SDS011;6091;51.432;6.880;2023-07-22T08:43:34;5.03;;;4.63;;
12059;SDS011;6091;51.432;6.880;2023-07-22T08:46:06;4.47;;;4.07;;
12059;SDS011;6091;51.432;6.880;2023-07-22T08:48:35;4.10;;;3.80;;
12059;SDS011;6091;51.432;6.880;2023-07-22T08:51:12;4.53;;;4.15;;
12059;SDS011;6091;51.432;6.880;2023-07-22T08:53:44;4.28;;;3.88;;
12059;SDS011;6091;51.432;6.880;2023-07-22T08:56:33;4.70;;;4.10;;
12059;SDS011;6091;51.432;6.880;2023-07-22T08:59:01;4.57;;;4.18;;
12059;SDS011;6091;51.432;6.880;2023-07-22T09:01:28;5.70;;;4.63;;
12059;SDS011;6091;51.432;6.880;2023-07-22T09:03:56;5.55;;;4.85;;
12059;SDS011;6091;51.432;6.880;2023-07-22T09:06:25;4.78;;;4.30;;
12059;SDS011;6091;51.432;6.880;2023-07-22T09:08:52;4.53;;;4.13;;
12059;SDS011;6091;51.432;6.880;2023-07-22T09:11:20;4.55;;;4.20;;
12059;SDS011;6091;51.432;6.880;2023-07-22T09:13:48;21.17;;;3.97;;
12059;SDS011;6091;51.432;6.880;2023-07-22T09:16:16;4.20;;;3.90;;
12059;SDS011;6091;51.432;6.880;2023-07-22T09:18:45;4.70;;;4.30;;
12059;SDS011;6091;51.432;6.880;2023-07-22T09:21:12;5.97;;;4.20;;
12059;SDS011;6091;51.432;6.880;2023-07-22T09:23:39;4.30;;;3.90;;
12059;SDS011;6091;51.432;6.880;2023-07-22T09:26:12;4.40;;;4.03;;
12059;SDS011;6091;51.432;6.880;2023-07-22T09:31:23;4.75;;;4.35;;
12059;SDS011;6091;51.432;6.880;2023-07-22T09:33:52;4.18;;;3.88;;
12059;SDS011;6091;51.432;6.880;2023-07-22T09:36:20;4.10;;;3.80;;
12059;SDS011;6091;51.432;6.880;2023-07-22T09:39:00;3.85;;;3.55;;
12059;SDS011;6091;51.432;6.880;2023-07-22T09:41:31;3.97;;;3.58;;
12059;SDS011;6091;51.432;6.880;2023-07-22T09:44:01;3.90;;;3.45;;
12059;SDS011;6091;51.432;6.880;2023-07-22T09:46:33;3.70;;;3.40;;
12059;SDS011;6091;51.432;6.880;2023-07-22T09:49:05;3.90;;;3.50;;
12059;SDS011;6091;51.432;6.880;2023-07-22T09:51:36;3.50;;;3.20;;
12059;SDS011;6091;51.432;6.880;2023-07-22T09:54:26;3.60;;;3.30;;
12059;SDS011;6091;51.432;6.880;2023-07-22T09:56:57;3.95;;;3.30;;
12059;SDS011;6091;51.432;6.880;2023-07-22T09:59:24;3.50;;;3.20;;
12059;SDS011;6091;51.432;6.880;2023-07-22T10:01:56;3.50;;;3.20;;
12059;SDS011;6091;51.432;6.880;2023-07-22T10:04:29;2.95;;;2.70;;
12059;SDS011;6091;51.432;6.880;2023-07-22T10:07:01;3.72;;;3.15;;
12059;SDS011;6091;51.432;6.880;2023-07-22T10:09:31;4.60;;;2.47;;
12059;SDS011;6091;51.432;6.880;2023-07-22T10:12:03;2.80;;;2.60;;
12059;SDS011;6091;51.432;6.880;2023-07-22T10:14:31;3.47;;;3.15;;
12059;SDS011;6091;51.432;6.880;2023-07-22T10:17:03;3.35;;;3.05;;
12059;SDS011;6091;51.432;6.880;2023-07-22T10:19:32;2.58;;;2.38;;
12059;SDS011;6091;51.432;6.880;2023-07-22T10:21:59;3.20;;;2.90;;
12059;SDS011;6091;51.432;6.880;2023-07-22T10:24:28;3.03;;;2.75;;
12059;SDS011;6091;51.432;6.880;2023-07-22T10:26:55;3.42;;;2.90;;
12059;SDS011;6091;51.432;6.880;2023-07-22T10:29:22;2.53;;;2.33;;
12059;SDS011;6091;51.432;6.880;2023-07-22T10:31:53;3.00;;;2.40;;
12059;SDS011;6091;51.432;6.880;2023-07-22T10:34:21;2.70;;;2.50;;
12059;SDS011;6091;51.432;6.880;2023-07-22T10:36:49;2.88;;;2.60;;
12059;SDS011;6091;51.432;6.880;2023-07-22T10:39:26;2.65;;;2.45;;
12059;SDS011;6091;51.432;6.880;2023-07-22T10:42:02;2.35;;;2.08;;
12059;SDS011;6091;51.432;6.880;2023-07-22T10:44:36;3.35;;;3.03;;
12059;SDS011;6091;51.432;6.880;2023-07-22T10:47:05;2.53;;;2.33;;
12059;SDS011;6091;51.432;6.880;2023-07-22T10:49:44;2.85;;;2.58;;
12059;SDS011;6091;51.432;6.880;2023-07-22T10:52:14;2.30;;;2.10;;
12059;SDS011;6091;51.432;6.880;2023-07-22T10:54:41;3.13;;;2.55;;
12059;SDS011;6091;51.432;6.880;2023-07-22T10:59:48;2.53;;;2.33;;
12059;SDS011;6091;51.432;6.880;2023-07-22T11:02:25;2.90;;;2.58;;
12059;SDS011;6091;51.432;6.880;2023-07-22T11:04:58;2.67;;;2.10;;
12059;SDS011;6091;51.432;6.880;2023-07-22T11:07:33;2.33;;;2.13;;
12059;SDS011;6091;51.432;6.880;2023-07-22T11:10:17;2.33;;;1.90;;
12059;SDS011;6091;51.432;6.880;2023-07-22T11:12:45;2.28;;;2.08;;
12059;SDS011;6091;51.432;6.880;2023-07-22T11:15:14;1.90;;;1.80;;
12059;SDS011;6091;51.432;6.880;2023-07-22T11:17:44;2.38;;;2.17;;
12059;SDS011;6091;51.432;6.880;2023-07-22T11:20:11;2.35;;;2.00;;
12059;SDS011;6091;51.432;6.880;2023-07-22T11:22:39;1.90;;;1.80;;
12059;SDS011;6091;51.432;6.880;2023-07-22T11:25:07;2.80;;;2.03;;
12059;SDS011;6091;51.432;6.880;2023-07-22T11:27:35;2.88;;;2.05;;
12059;SDS011;6091;51.432;6.880;2023-07-22T11:30:02;2.15;;;1.83;;
12059;SDS011;6091;51.432;6.880;2023-07-22T11:32:31;1.83;;;1.73;;
12059;SDS011;6091;51.432;6.880;2023-07-22T11:34:59;2.15;;;1.88;;
12059;SDS011;6091;51.432;6.880;2023-07-22T11:37:27;2.28;;;2.00;;
12059;SDS011;6091;51.432;6.880;2023-07-22T11:39:59;1.80;;;1.70;;
12059;SDS011;6091;51.432;6.880;2023-07-22T11:42:28;1.90;;;1.80;;
12059;SDS011;6091;51.432;6.880;2023-07-22T11:44:56;2.00;;;1.80;;
12059;SDS011;6091;51.432;6.880;2023-07-22T11:47:28;2.00;;;1.90;;
12059;SDS011;6091;51.432;6.880;2023-07-22T11:49:57;2.03;;;1.92;;
12059;SDS011;6091;51.432;6.880;2023-07-22T11:52:25;1.95;;;1.85;;
12059;SDS011;6091;51.432;6.880;2023-07-22T11:54:52;2.08;;;1.88;;
12059;SDS011;6091;51.432;6.880;2023-07-22T11:57:23;1.70;;;1.60;;
12059;SDS011;6091;51.432;6.880;2023-07-22T11:59:51;1.77;;;1.67;;
12059;SDS011;6091;51.432;6.880;2023-07-22T12:02:22;3.03;;;2.17;;
12059;SDS011;6091;51.432;6.880;2023-07-22T12:04:58;1.85;;;1.65;;
12059;SDS011;6091;51.432;6.880;2023-07-22T12:07:29;2.63;;;2.08;;
12059;SDS011;6091;51.432;6.880;2023-07-22T12:09:58;2.83;;;2.33;;
12059;SDS011;6091;51.432;6.880;2023-07-22T12:12:31;2.55;;;1.90;;
12059;SDS011;6091;51.432;6.880;2023-07-22T12:15:13;1.83;;;1.73;;
12059;SDS011;6091;51.432;6.880;2023-07-22T12:17:52;2.20;;;1.55;;
12059;SDS011;6091;51.432;6.880;2023-07-22T12:20:25;2.60;;;1.90;;
12059;SDS011;6091;51.432;6.880;2023-07-22T12:22:55;1.90;;;1.60;;
12059;SDS011;6091;51.432;6.880;2023-07-22T12:25:23;1.55;;;1.42;;
12059;SDS011;6091;51.432;6.880;2023-07-22T12:27:50;2.20;;;1.58;;
12059;SDS011;6091;51.432;6.880;2023-07-22T12:30:18;1.90;;;1.67;;
12059;SDS011;6091;51.432;6.880;2023-07-22T12:32:46;2.55;;;1.70;;
12059;SDS011;6091;51.432;6.880;2023-07-22T12:35:14;2.13;;;1.70;;
12059;SDS011;6091;51.432;6.880;2023-07-22T12:37:42;1.83;;;1.73;;
12059;SDS011;6091;51.432;6.880;2023-07-22T12:40:09;1.90;;;1.77;;
12059;SDS011;6091;51.432;6.880;2023-07-22T12:42:41;2.15;;;1.95;;
12059;SDS011;6091;51.432;6.880;2023-07-22T12:45:09;2.35;;;2.08;;
12059;SDS011;6091;51.432;6.880;2023-07-22T12:47:36;2.55;;;2.10;;
12059;SDS011;6091;51.432;6.880;2023-07-22T12:50:04;2.13;;;1.92;;
12059;SDS011;6091;51.432;6.880;2023-07-22T12:52:36;2.30;;;2.10;;
12059;SDS011;6091;51.432;6.880;2023-07-22T12:55:04;1.95;;;1.85;;
12059;SDS011;6091;51.432;6.880;2023-07-22T12:57:31;1.83;;;1.73;;
12059;SDS011;6091;51.432;6.880;2023-07-22T12:59:58;2.35;;;2.15;;
12059;SDS011;6091;51.432;6.880;2023-07-22T13:02:25;2.45;;;2.25;;
12059;SDS011;6091;51.432;6.880;2023-07-22T13:04:52;2.25;;;2.05;;
12059;SDS011;6091;51.432;6.880;2023-07-22T13:07:20;2.75;;;1.90;;
12059;SDS011;6091;51.432;6.880;2023-07-22T13:09:47;2.50;;;2.03;;
12059;SDS011;6091;51.432;6.880;2023-07-22T13:12:17;2.20;;;2.00;;
12059;SDS011;6091;51.432;6.880;2023-07-22T13:14:45;2.20;;;2.00;;
12059;SDS011;6091;51.432;6.880;2023-07-22T13:17:12;1.83;;;1.73;;
12059;SDS011;6091;51.432;6.880;2023-07-22T13:19:39;1.77;;;1.67;;
12059;SDS011;6091;51.432;6.880;2023-07-22T13:22:06;1.80;;;1.70;;
12059;SDS011;6091;51.432;6.880;2023-07-22T13:24:33;3.35;;;2.30;;
12059;SDS011;6091;51.432;6.880;2023-07-22T13:27:01;2.58;;;2.38;;
12059;SDS011;6091;51.432;6.880;2023-07-22T13:29:28;2.20;;;2.00;;
12059;SDS011;6091;51.432;6.880;2023-07-22T13:31:55;2.28;;;2.13;;
12059;SDS011;6091;51.432;6.880;2023-07-22T13:34:22;2.35;;;2.15;;
12059;SDS011;6091;51.432;6.880;2023-07-22T13:36:50;2.40;;;2.20;;
12059;SDS011;6091;51.432;6.880;2023-07-22T13:39:17;2.03;;;1.92;;
12059;SDS011;6091;51.432;6.880;2023-07-22T13:41:44;1.67;;;1.58;;
12059;SDS011;6091;51.432;6.880;2023-07-22T13:44:11;2.22;;;2.03;;
12059;SDS011;6091;51.432;6.880;2023-07-22T13:46:39;1.90;;;1.80;;
12059;SDS011;6091;51.432;6.880;2023-07-22T13:49:06;1.88;;;1.77;;
12059;SDS011;6091;51.432;6.880;2023-07-22T13:51:33;2.40;;;2.20;;
12059;SDS011;6091;51.432;6.880;2023-07-22T13:54:00;1.73;;;1.60;;
12059;SDS011;6091;51.432;6.880;2023-07-22T13:56:28;2.58;;;2.30;;
12059;SDS011;6091;51.432;6.880;2023-07-22T13:58:55;1.90;;;1.70;;
12059;SDS011;6091;51.432;6.880;2023-07-22T14:01:22;2.13;;;2.03;;
12059;SDS011;6091;51.432;6.880;2023-07-22T14:03:49;3.00;;;2.05;;
12059;SDS011;6091;51.432;6.880;2023-07-22T14:06:16;3.20;;;2.00;;
12059;SDS011;6091;51.432;6.880;2023-07-22T14:08:43;2.22;;;2.03;;
12059;SDS011;6091;51.432;6.880;2023-07-22T14:11:10;2.28;;;2.08;;
12059;SDS011;6091;51.432;6.880;2023-07-22T14:13:37;2.30;;;2.10;;
12059;SDS011;6091;51.432;6.880;2023-07-22T14:16:04;3.10;;;2.22;;
12059;SDS011;6091;51.432;6.880;2023-07-22T14:18:47;2.30;;;2.20;;
12059;SDS011;6091;51.432;6.880;2023-07-22T14:21:14;2.90;;;2.10;;
12059;SDS011;6091;51.432;6.880;2023-07-22T14:23:41;2.30;;;2.10;;
12059;SDS011;6091;51.432;6.880;2023-07-22T14:26:10;1.88;;;1.77;;
12059;SDS011;6091;51.432;6.880;2023-07-22T14:28:37;3.05;;;1.92;;
12059;SDS011;6091;51.432;6.880;2023-07-22T14:31:04;1.90;;;1.80;;
12059;SDS011;6091;51.432;6.880;2023-07-22T14:33:31;2.47;;;2.28;;
12059;SDS011;6091;51.432;6.880;2023-07-22T14:35:59;2.20;;;2.00;;
12059;SDS011;6091;51.432;6.880;2023-07-22T14:38:26;2.92;;;2.00;;
12059;SDS011;6091;51.432;6.880;2023-07-22T14:40:54;2.22;;;2.03;;
12059;SDS011;6091;51.432;6.880;2023-07-22T14:43:21;3.83;;;2.30;;
12059;SDS011;6091;51.432;6.880;2023-07-22T14:45:48;2.40;;;2.20;;
12059;SDS011;6091;51.432;6.880;2023-07-22T14:48:15;2.22;;;2.03;;
12059;SDS011;6091;51.432;6.880;2023-07-22T14:50:42;2.55;;;2.20;;
12059;SDS011;6091;51.432;6.880;2023-07-22T14:53:09;2.50;;;2.30;;
12059;SDS011;6091;51.432;6.880;2023-07-22T14:55:39;2.50;;;2.30;;
12059;SDS011;6091;51.432;6.880;2023-07-22T14:58:06;2.42;;;2.00;;
12059;SDS011;6091;51.432;6.880;2023-07-22T15:00:33;2.13;;;2.00;;
12059;SDS011;6091;51.432;6.880;2023-07-22T15:03:00;2.65;;;2.45;;
12059;SDS011;6091;51.432;6.880;2023-07-22T15:05:27;2.63;;;2.40;;
12059;SDS011;6091;51.432;6.880;2023-07-22T15:07:54;2.50;;;2.30;;
12059;SDS011;6091;51.432;6.880;2023-07-22T15:10:24;2.53;;;2.33;;
12059;SDS011;6091;51.432;6.880;2023-07-22T15:12:51;2.83;;;2.50;;